createdAt,value
2018-01-15T00:01:38.777Z,21.48
2018-01-15T00:04:07.045Z,22.02
2018-01-15T00:06:35.340Z,21.45
2018-01-15T00:09:02.848Z,23.83
2018-01-15T00:11:30.372Z,20.85
2018-01-15T00:13:57.878Z,20.95
2018-01-15T00:16:25.402Z,28.23
2018-01-15T00:18:52.940Z,24.17
2018-01-15T00:21:20.457Z,22.85
2018-01-15T00:23:48.016Z,25.62
2018-01-15T00:26:15.518Z,28.45
2018-01-15T00:28:43.036Z,20.12
2018-01-15T00:31:10.551Z,25.77
2018-01-15T00:33:38.081Z,21.23
2018-01-15T00:36:06.352Z,27.65
2018-01-15T00:38:34.631Z,23.25
2018-01-15T00:41:02.946Z,24.33
2018-01-15T00:43:30.451Z,23.90
2018-01-15T00:45:57.992Z,21.08
2018-01-15T00:48:25.506Z,22.62
2018-01-15T00:50:53.031Z,25.42
2018-01-15T00:53:20.560Z,22.50
2018-01-15T00:55:48.079Z,25.45
2018-01-15T00:58:15.604Z,27.50
2018-01-15T01:00:43.119Z,26.37
2018-01-15T01:03:10.659Z,30.98
2018-01-15T01:05:38.930Z,28.27
2018-01-15T01:08:07.216Z,25.62
2018-01-15T01:10:35.490Z,26.65
2018-01-15T01:13:03.800Z,23.10
2018-01-15T01:15:31.317Z,27.08
2018-01-15T01:17:59.600Z,31.20
2018-01-15T01:20:27.129Z,28.25
2018-01-15T01:22:54.638Z,19.62
2018-01-15T01:25:22.175Z,25.48
2018-01-15T01:27:50.448Z,30.52
2018-01-15T01:30:18.745Z,29.10
2018-01-15T01:32:47.021Z,28.58
2018-01-15T01:35:14.546Z,29.33
2018-01-15T01:37:42.070Z,31.12
2018-01-15T01:40:09.584Z,35.05
2018-01-15T01:42:37.884Z,32.08
2018-01-15T01:45:05.389Z,40.90
2018-01-15T01:47:32.912Z,43.80
2018-01-15T01:50:00.427Z,36.70
2018-01-15T01:52:27.952Z,33.38
2018-01-15T01:54:55.470Z,40.20
2018-01-15T01:57:22.992Z,33.45
2018-01-15T01:59:50.510Z,39.85
2018-01-15T02:02:18.040Z,38.80
2018-01-15T02:04:46.329Z,48.80
2018-01-15T02:07:14.610Z,35.85
2018-01-15T02:09:42.151Z,37.67
2018-01-15T02:12:10.432Z,42.00
2018-01-15T02:14:38.743Z,37.97
2018-01-15T02:17:06.252Z,39.83
2018-01-15T02:19:33.788Z,43.08
2018-01-15T02:22:01.296Z,47.05
2018-01-15T02:24:29.594Z,42.90
2018-01-15T02:26:57.107Z,46.75
2018-01-15T02:29:24.605Z,51.20
2018-01-15T02:31:52.171Z,43.65
2018-01-15T02:34:19.682Z,41.15
2018-01-15T02:36:47.225Z,43.47
2018-01-15T02:39:16.758Z,48.85
2018-01-15T02:41:44.292Z,39.58
2018-01-15T02:44:11.796Z,35.67
2018-01-15T02:46:40.081Z,44.42
2018-01-15T02:49:07.592Z,42.88
2018-01-15T02:51:35.116Z,46.05
2018-01-15T02:54:02.632Z,42.25
2018-01-15T02:56:30.132Z,38.67
2018-01-15T02:58:57.663Z,47.42
2018-01-15T03:01:25.943Z,40.33
2018-01-15T03:03:54.249Z,43.05
2018-01-15T03:06:21.756Z,43.75
2018-01-15T03:08:49.289Z,47.90
2018-01-15T03:11:16.800Z,44.92
2018-01-15T03:13:45.101Z,48.22
2018-01-15T03:16:12.610Z,38.63
2018-01-15T03:18:40.139Z,40.50
2018-01-15T03:21:07.652Z,45.85
2018-01-15T03:23:35.940Z,46.25
2018-01-15T03:26:04.211Z,47.22
2018-01-15T03:28:32.489Z,46.50
2018-01-15T03:31:00.788Z,47.38
2018-01-15T03:33:28.289Z,43.55
2018-01-15T03:35:55.825Z,47.20
2018-01-15T03:38:23.336Z,50.20
2018-01-15T03:40:50.847Z,35.42
2018-01-15T03:43:18.336Z,40.42
2018-01-15T03:45:45.860Z,43.35
2018-01-15T03:48:14.135Z,40.65
2018-01-15T03:50:41.686Z,45.00
2018-01-15T03:53:09.208Z,40.60
2018-01-15T03:55:36.716Z,40.10
2018-01-15T03:58:04.254Z,43.83
2018-01-15T04:00:32.553Z,47.50
2018-01-15T04:03:00.088Z,36.80
2018-01-15T04:05:28.364Z,39.42
2018-01-15T04:07:56.653Z,36.70
2018-01-15T04:10:24.156Z,40.72
2018-01-15T04:12:51.665Z,35.20
2018-01-15T04:15:19.199Z,46.20
2018-01-15T04:17:46.695Z,41.03
2018-01-15T04:20:14.221Z,36.42
2018-01-15T04:22:41.721Z,41.10
2018-01-15T04:25:09.250Z,41.03
2018-01-15T04:27:37.511Z,41.65
2018-01-15T04:30:05.041Z,34.50
2018-01-15T04:32:32.554Z,38.17
2018-01-15T04:35:00.840Z,44.38
2018-01-15T04:37:28.368Z,38.75
2018-01-15T04:39:55.869Z,39.15
2018-01-15T04:42:23.391Z,41.30
2018-01-15T04:44:51.675Z,39.70
2018-01-15T04:47:19.964Z,39.97
2018-01-15T04:49:48.236Z,37.10
2018-01-15T04:52:15.782Z,45.38
2018-01-15T04:54:43.284Z,34.58
2018-01-15T04:57:10.831Z,37.85
2018-01-15T04:59:38.333Z,39.78
2018-01-15T05:02:05.849Z,37.33
2018-01-15T05:04:33.357Z,43.20
2018-01-15T05:07:00.855Z,46.10
2018-01-15T05:09:29.138Z,44.20
2018-01-15T05:11:57.395Z,36.45
2018-01-15T05:14:24.920Z,36.92
2018-01-15T05:16:52.411Z,33.20
2018-01-15T05:19:19.928Z,40.88
2018-01-15T05:21:47.427Z,34.30
2018-01-15T05:24:14.941Z,41.50
2018-01-15T05:26:42.435Z,36.88
2018-01-15T05:29:09.951Z,43.20
2018-01-15T05:31:37.450Z,36.08
2018-01-15T05:34:04.944Z,41.80
2018-01-15T05:36:33.223Z,42.45
2018-01-15T05:39:01.484Z,40.90
2018-01-15T05:41:29.003Z,45.65
2018-01-15T05:43:56.497Z,34.00
2018-01-15T05:46:24.017Z,33.55
2018-01-15T05:48:51.512Z,33.25
2018-01-15T05:51:19.033Z,34.72
2018-01-15T05:53:46.527Z,32.05
2018-01-15T05:56:14.051Z,32.40
2018-01-15T05:58:41.548Z,40.78
2018-01-15T06:01:09.059Z,30.35
2018-01-15T06:03:36.598Z,36.67
2018-01-15T06:06:04.863Z,36.92
2018-01-15T06:08:33.144Z,31.48
2018-01-15T06:11:01.417Z,33.83
2018-01-15T06:13:29.704Z,35.10
2018-01-15T06:15:57.968Z,42.30
2018-01-15T06:18:25.524Z,31.23
2018-01-15T06:20:53.804Z,33.13
2018-01-15T06:23:22.119Z,31.62
2018-01-15T06:25:49.644Z,32.78
2018-01-15T06:28:18.116Z,31.05
2018-01-15T06:30:45.653Z,37.78
2018-01-15T06:33:13.160Z,33.42
2018-01-15T06:35:41.470Z,30.90
2018-01-15T06:38:08.976Z,36.55
2018-01-15T06:40:36.488Z,39.10
2018-01-15T06:43:04.004Z,39.78
2018-01-15T06:45:32.280Z,34.67
2018-01-15T06:48:00.589Z,39.55
2018-01-15T06:50:28.092Z,37.83
2018-01-15T06:52:55.609Z,36.75
2018-01-15T06:55:23.103Z,32.65
2018-01-15T06:57:51.065Z,34.22
2018-01-15T07:00:19.321Z,38.88
2018-01-15T07:02:46.828Z,32.35
2018-01-15T07:05:14.376Z,33.88
2018-01-15T07:07:41.874Z,31.80
2018-01-15T07:10:10.220Z,34.90
2018-01-15T07:12:37.749Z,32.67
2018-01-15T07:15:05.287Z,36.50
2018-01-15T07:17:32.792Z,36.95
2018-01-15T07:20:00.330Z,29.83
2018-01-15T07:22:27.839Z,32.63
2018-01-15T07:24:56.132Z,30.58
2018-01-15T07:27:24.395Z,36.17
2018-01-15T07:29:52.687Z,27.27
2018-01-15T07:32:20.956Z,36.17
2018-01-15T07:34:49.224Z,37.45
2018-01-15T07:37:16.752Z,39.35
2018-01-15T07:39:44.278Z,34.25
2018-01-15T07:42:11.813Z,37.30
2018-01-15T07:44:40.085Z,38.28
2018-01-15T07:47:08.394Z,37.65
2018-01-15T07:49:35.910Z,27.13
2018-01-15T07:52:03.438Z,36.50
2018-01-15T07:54:30.940Z,33.55
2018-01-15T07:56:59.217Z,37.40
2018-01-15T07:59:26.748Z,35.25
2018-01-15T08:01:54.270Z,44.67
2018-01-15T08:04:21.804Z,35.40
2018-01-15T08:06:50.079Z,40.58
2018-01-15T08:09:18.372Z,35.47
2018-01-15T08:11:46.652Z,34.33
2018-01-15T08:14:14.192Z,39.28
2018-01-15T08:16:42.472Z,38.05
2018-01-15T08:19:10.746Z,34.97
2018-01-15T08:21:39.045Z,38.17
2018-01-15T08:24:06.545Z,33.53
2018-01-15T08:26:34.075Z,40.70
2018-01-15T08:29:01.589Z,38.80
2018-01-15T08:31:29.116Z,41.37
2018-01-15T08:33:56.621Z,36.85
2018-01-15T08:36:24.940Z,39.95
2018-01-15T08:38:52.441Z,36.85
2018-01-15T08:41:19.965Z,38.05
2018-01-15T08:43:47.478Z,38.85
2018-01-15T08:46:15.762Z,42.72
2018-01-15T08:48:44.080Z,37.17
2018-01-15T08:51:11.581Z,38.22
2018-01-15T08:53:39.100Z,39.83
2018-01-15T08:56:06.608Z,40.28
2018-01-15T08:58:34.900Z,36.50
2018-01-15T09:01:03.182Z,33.08
2018-01-15T09:03:31.477Z,37.30
2018-01-15T09:05:58.984Z,37.53
2018-01-15T09:08:26.489Z,36.28
2018-01-15T09:10:54.013Z,35.15
2018-01-15T09:13:21.512Z,33.42
2018-01-15T09:15:49.037Z,35.13
2018-01-15T09:18:16.540Z,35.50
2018-01-15T09:20:44.063Z,28.70
2018-01-15T09:23:12.340Z,32.17
2018-01-15T09:25:40.630Z,29.27
2018-01-15T09:28:08.904Z,30.83
2018-01-15T09:30:37.207Z,35.58
2018-01-15T09:33:04.719Z,33.38
2018-01-15T09:35:32.229Z,32.92
2018-01-15T09:37:59.758Z,24.77
2018-01-15T09:40:28.043Z,33.67
2018-01-15T09:42:56.333Z,31.45
2018-01-15T09:45:23.845Z,34.97
2018-01-15T09:47:51.378Z,25.45
2018-01-15T09:50:18.892Z,26.77
2018-01-15T09:52:47.180Z,22.37
2018-01-15T09:55:14.697Z,29.75
2018-01-15T09:57:42.264Z,26.62
2018-01-15T10:00:09.773Z,22.60
2018-01-15T10:02:37.309Z,32.30
2018-01-15T10:05:05.597Z,24.83
2018-01-15T10:07:33.101Z,26.02
2018-01-15T10:10:00.637Z,27.62
2018-01-15T10:12:28.151Z,27.35
2018-01-15T10:14:56.461Z,33.35
2018-01-15T10:17:23.968Z,29.05
2018-01-15T10:19:51.489Z,22.70
2018-01-15T10:22:19.012Z,23.08
2018-01-15T10:24:47.319Z,24.23
2018-01-15T10:27:14.837Z,23.20
2018-01-15T10:29:42.340Z,21.87
2018-01-15T10:32:09.868Z,23.17
2018-01-15T10:34:38.139Z,29.15
2018-01-15T10:37:05.672Z,27.33
2018-01-15T10:39:33.194Z,27.45
2018-01-15T10:42:00.739Z,27.80
2018-01-15T10:44:29.024Z,25.27
2018-01-15T10:46:56.550Z,22.95
2018-01-15T10:49:24.057Z,28.80
2018-01-15T10:51:51.576Z,23.08
2018-01-15T10:54:19.102Z,28.60
2018-01-15T10:56:46.601Z,29.75
2018-01-15T10:59:14.120Z,23.77
2018-01-15T11:01:41.637Z,19.80
2018-01-15T11:04:09.928Z,27.20
2018-01-15T11:06:37.437Z,25.15
2018-01-15T11:09:05.007Z,27.67
2018-01-15T11:11:32.515Z,22.62
2018-01-15T11:14:00.034Z,27.33
2018-01-15T11:16:27.529Z,22.98
2018-01-15T11:18:55.053Z,24.12
2018-01-15T11:21:23.340Z,24.00
2018-01-15T11:23:50.861Z,19.67
2018-01-15T11:26:18.372Z,28.08
2018-01-15T11:28:46.646Z,21.17
2018-01-15T11:31:14.946Z,25.25
2018-01-15T11:33:42.447Z,23.70
2018-01-15T11:36:09.989Z,21.12
2018-01-15T11:38:37.492Z,20.60
2018-01-15T11:41:05.775Z,22.55
2018-01-15T11:43:34.044Z,23.35
2018-01-15T11:46:02.992Z,26.60
2018-01-15T11:48:30.490Z,21.08
2018-01-15T11:50:58.005Z,23.02
2018-01-15T11:53:25.508Z,21.33
2018-01-15T11:55:53.028Z,29.25
2018-01-15T11:58:20.533Z,22.02
2018-01-15T12:00:48.850Z,22.52
2018-01-15T12:03:17.099Z,23.58
2018-01-15T12:05:45.381Z,23.95
2018-01-15T12:08:13.674Z,23.65
2018-01-15T12:10:41.180Z,22.58
2018-01-15T12:13:08.698Z,19.45
2018-01-15T12:15:36.202Z,20.98
2018-01-15T12:18:03.761Z,24.37
2018-01-15T12:20:31.274Z,20.37
2018-01-15T12:22:58.835Z,24.40
2018-01-15T12:25:26.340Z,24.90
2018-01-15T12:27:53.870Z,24.35
2018-01-15T12:30:21.374Z,23.55
2018-01-15T12:32:48.901Z,21.80
2018-01-15T12:35:17.170Z,18.60
2018-01-15T12:37:45.522Z,19.05
2018-01-15T12:40:13.041Z,23.60
2018-01-15T12:42:40.536Z,25.65
2018-01-15T12:45:08.065Z,26.25
2018-01-15T12:47:35.569Z,24.23
2018-01-15T12:50:03.092Z,21.70
2018-01-15T12:52:31.388Z,23.23
2018-01-15T12:54:58.901Z,21.52
2018-01-15T12:57:26.413Z,19.27
2018-01-15T12:59:53.945Z,22.52
2018-01-15T13:02:21.457Z,22.42
2018-01-15T13:04:48.984Z,18.95
2018-01-15T13:07:29.074Z,25.15
2018-01-15T13:09:57.362Z,23.33
2018-01-15T13:12:24.868Z,19.85
2018-01-15T13:14:53.168Z,25.05
2018-01-15T13:17:20.678Z,19.20
2018-01-15T13:19:48.194Z,23.62
2018-01-15T13:22:15.726Z,24.73
2018-01-15T13:24:43.998Z,17.52
2018-01-15T13:27:12.277Z,18.80
2018-01-15T13:29:40.543Z,22.83
2018-01-15T13:32:08.065Z,21.00
2018-01-15T13:34:35.580Z,25.25
2018-01-15T13:37:03.878Z,22.15
2018-01-15T13:39:31.394Z,20.77
2018-01-15T13:41:58.926Z,21.48
2018-01-15T13:44:26.452Z,23.85
2018-01-15T13:46:53.952Z,20.12
2018-01-15T13:49:22.477Z,19.48
2018-01-15T13:51:50.743Z,24.00
2018-01-15T13:54:19.037Z,17.00
2018-01-15T13:56:47.300Z,23.12
2018-01-15T13:59:15.596Z,23.00
2018-01-15T14:01:43.102Z,26.37
2018-01-15T14:04:10.706Z,22.90
2018-01-15T14:06:38.276Z,19.90
2018-01-15T14:09:06.576Z,18.45
2018-01-15T14:11:34.109Z,25.58
2018-01-15T14:14:02.372Z,20.92
2018-01-15T14:16:30.700Z,22.67
2018-01-15T14:18:58.224Z,22.13
2018-01-15T14:21:26.532Z,20.92
2018-01-15T14:23:54.072Z,20.77
2018-01-15T14:26:21.608Z,20.27
2018-01-15T14:28:50.900Z,24.73
2018-01-15T14:31:18.397Z,16.60
2018-01-15T14:33:45.920Z,22.67
2018-01-15T14:36:13.417Z,19.67
2018-01-15T14:38:40.937Z,19.58
2018-01-15T14:41:08.454Z,18.08
2018-01-15T14:43:35.989Z,20.50
2018-01-15T14:46:04.336Z,24.92
2018-01-15T14:48:31.856Z,18.37
2018-01-15T14:50:59.368Z,19.77
2018-01-15T14:53:27.657Z,17.65
2018-01-15T14:55:56.034Z,15.73
2018-01-15T14:58:24.328Z,20.67
2018-01-15T15:00:51.859Z,18.02
2018-01-15T15:03:20.134Z,20.42
2018-01-15T15:05:47.654Z,27.55
2018-01-15T15:08:15.169Z,18.33
2018-01-15T15:10:43.460Z,21.70
2018-01-15T15:13:10.973Z,26.17
2018-01-15T15:15:38.494Z,19.52
2018-01-15T15:18:05.992Z,19.02
2018-01-15T15:20:33.497Z,19.37
2018-01-15T15:23:01.037Z,15.07
2018-01-15T15:25:29.313Z,19.15
2018-01-15T15:27:57.612Z,21.12
2018-01-15T15:30:25.122Z,25.23
2018-01-15T15:32:52.663Z,21.50
2018-01-15T15:35:20.180Z,19.45
2018-01-15T15:37:48.485Z,24.35
2018-01-15T15:40:16.014Z,21.25
2018-01-15T15:42:44.292Z,18.20
2018-01-15T15:45:12.588Z,22.95
2018-01-15T15:47:40.100Z,24.12
2018-01-15T15:50:07.643Z,19.20
2018-01-15T15:52:35.173Z,21.83
2018-01-15T15:55:03.415Z,25.52
2018-01-15T15:57:31.701Z,18.85
2018-01-15T15:59:59.996Z,22.58
2018-01-15T16:02:27.514Z,27.10
2018-01-15T16:04:55.023Z,22.98
2018-01-15T16:07:22.577Z,20.00
2018-01-15T16:09:50.100Z,27.83
2018-01-15T16:12:17.624Z,17.75
2018-01-15T16:14:45.144Z,22.37
2018-01-15T16:17:13.445Z,23.42
2018-01-15T16:19:40.941Z,18.85
2018-01-15T16:22:20.460Z,26.87
2018-01-15T16:24:47.975Z,22.70
2018-01-15T16:27:16.296Z,21.48
2018-01-15T16:29:43.829Z,23.20
2018-01-15T16:32:11.328Z,23.10
2018-01-15T16:34:38.865Z,22.08
2018-01-15T16:37:06.371Z,19.00
2018-01-15T16:39:33.903Z,20.17
2018-01-15T16:42:01.398Z,21.10
2018-01-15T16:44:28.901Z,22.25
2018-01-15T16:46:56.435Z,24.52
2018-01-15T16:49:24.714Z,17.42
2018-01-15T16:51:52.997Z,20.58
2018-01-15T16:54:20.512Z,15.93
2018-01-15T16:56:48.028Z,21.20
2018-01-15T16:59:15.529Z,18.40
2018-01-15T17:01:43.160Z,23.08
2018-01-15T17:04:11.497Z,16.25
2018-01-15T17:06:39.760Z,18.75
2018-01-15T17:09:07.306Z,13.30
2018-01-15T17:11:34.981Z,19.55
2018-01-15T17:14:02.725Z,16.40
2018-01-15T17:16:30.227Z,15.45
2018-01-15T17:18:58.512Z,20.10
2018-01-15T17:21:26.894Z,23.05
2018-01-15T17:23:55.180Z,21.17
2018-01-15T17:26:22.672Z,18.50
2018-01-15T17:28:50.197Z,19.45
2018-01-15T17:31:17.704Z,23.00
2018-01-15T17:33:45.209Z,20.77
2018-01-15T17:36:13.488Z,17.90
2018-01-15T17:38:41.757Z,19.87
2018-01-15T17:41:10.039Z,18.85
2018-01-15T17:43:38.308Z,18.00
2018-01-15T17:46:06.601Z,21.52
2018-01-15T17:48:34.121Z,23.40
2018-01-15T17:51:01.652Z,21.83
2018-01-15T17:53:29.160Z,20.15
2018-01-15T17:55:57.462Z,17.02
2018-01-15T17:58:25.063Z,19.92
2018-01-15T18:00:52.673Z,19.02
2018-01-15T18:03:20.171Z,20.42
2018-01-15T18:05:47.686Z,17.40
2018-01-15T18:08:16.988Z,19.30
2018-01-15T18:10:45.256Z,18.50
2018-01-15T18:13:13.558Z,20.40
2018-01-15T18:15:41.075Z,23.40
2018-01-15T18:18:08.593Z,21.25
2018-01-15T18:20:36.092Z,19.08
2018-01-15T18:23:03.636Z,22.92
2018-01-15T18:25:31.128Z,16.20
2018-01-15T18:27:59.430Z,22.55
2018-01-15T18:30:26.930Z,18.12
2018-01-15T18:32:54.445Z,17.23
2018-01-15T18:35:21.984Z,17.08
2018-01-15T18:37:50.264Z,19.87
2018-01-15T18:40:17.821Z,20.20
2018-01-15T18:42:45.318Z,19.67
2018-01-15T18:45:12.853Z,20.42
2018-01-15T18:47:41.279Z,23.00
2018-01-15T18:50:09.824Z,23.35
2018-01-15T18:52:38.098Z,23.45
2018-01-15T18:55:06.394Z,21.08
2018-01-15T18:57:33.903Z,18.33
2018-01-15T19:00:01.402Z,22.98
2018-01-15T19:02:29.683Z,22.30
2018-01-15T19:04:58.627Z,24.95
2018-01-15T19:07:26.172Z,23.00
2018-01-15T19:09:57.083Z,28.70
2018-01-15T19:12:25.676Z,17.48
2018-01-15T19:14:53.203Z,22.13
2018-01-15T19:17:21.516Z,20.77
2018-01-15T19:19:49.030Z,18.33
2018-01-15T19:22:16.556Z,21.23
2018-01-15T19:24:44.060Z,20.83
2018-01-15T19:27:12.772Z,18.87
2018-01-15T19:29:40.284Z,19.10
2018-01-15T19:32:07.872Z,21.08
2018-01-15T19:34:54.045Z,18.50
2018-01-15T19:40:17.948Z,16.77
2018-01-15T19:42:45.463Z,16.80
2018-01-15T19:45:18.572Z,16.40
2018-01-15T19:47:51.726Z,16.42
2018-01-15T19:50:24.895Z,17.60
2018-01-15T19:52:58.791Z,15.82
2018-01-15T19:55:31.891Z,16.27
2018-01-15T19:58:05.993Z,16.05
2018-01-15T20:00:39.153Z,17.87
2018-01-15T20:03:12.231Z,15.43
2018-01-15T20:08:51.286Z,16.00
2018-01-15T20:11:18.795Z,15.88
2018-01-15T20:13:46.336Z,16.25
2018-01-15T20:16:14.732Z,16.60
2018-01-15T20:18:45.168Z,15.73
2018-01-15T20:21:13.465Z,16.50
2018-01-15T20:23:40.980Z,15.70
2018-01-15T20:26:08.500Z,13.70
2018-01-15T20:28:36.047Z,15.50
2018-01-15T20:31:03.698Z,13.00
2018-01-15T20:33:31.969Z,13.38
2018-01-15T20:36:00.280Z,19.02
2018-01-15T20:38:27.786Z,20.17
2018-01-15T20:40:55.301Z,18.80
2018-01-15T20:43:22.841Z,15.57
2018-01-15T20:45:50.351Z,16.05
2018-01-15T20:48:17.874Z,12.02
2018-01-15T20:50:45.392Z,11.88
2018-01-15T20:53:12.923Z,11.75
2018-01-15T20:55:40.429Z,12.20
2018-01-15T20:58:08.748Z,11.90
2018-01-15T21:00:38.728Z,9.88
2018-01-15T21:03:06.288Z,10.95
2018-01-15T21:05:34.788Z,11.55
2018-01-15T21:08:02.304Z,10.80
2018-01-15T21:10:29.836Z,15.00
2018-01-15T21:12:57.338Z,8.93
2018-01-15T21:15:25.626Z,9.82
2018-01-15T21:17:53.199Z,9.30
2018-01-15T21:20:20.757Z,9.35
2018-01-15T21:22:48.264Z,9.90
2018-01-15T21:25:15.829Z,14.60
2018-01-15T21:27:43.342Z,11.05
2018-01-15T21:30:10.861Z,14.85
2018-01-15T21:32:38.377Z,11.15
2018-01-15T21:35:05.872Z,9.80
2018-01-15T21:37:33.415Z,9.15
2018-01-15T21:40:00.976Z,13.25
2018-01-15T21:42:28.533Z,10.90
2018-01-15T21:44:56.052Z,11.70
2018-01-15T21:47:23.583Z,9.23
2018-01-15T21:49:51.878Z,16.05
2018-01-15T21:52:19.528Z,10.05
2018-01-15T21:54:47.088Z,13.48
2018-01-15T21:57:14.597Z,9.85
2018-01-15T21:59:42.896Z,10.43
2018-01-15T22:02:10.429Z,8.68
2018-01-15T22:04:37.972Z,12.52
2018-01-15T22:07:05.481Z,11.82
2018-01-15T22:09:33.021Z,8.40
2018-01-15T22:12:00.529Z,7.97
2018-01-15T22:14:28.800Z,7.03
2018-01-15T22:16:56.411Z,7.20
2018-01-15T22:19:23.913Z,13.15
2018-01-15T22:21:51.471Z,10.43
2018-01-15T22:24:18.982Z,6.65
2018-01-15T22:26:46.516Z,8.35
2018-01-15T22:29:14.792Z,7.90
2018-01-15T22:31:43.099Z,6.45
2018-01-15T22:34:10.604Z,8.18
2018-01-15T22:36:38.101Z,6.93
2018-01-15T22:39:05.632Z,7.45
2018-01-15T22:41:33.132Z,6.50
2018-01-15T22:44:00.696Z,6.85
2018-01-15T22:46:28.187Z,5.75
2018-01-15T22:48:55.721Z,9.77
2018-01-15T22:51:23.229Z,7.75
2018-01-15T22:53:50.746Z,4.05
2018-01-15T22:56:18.245Z,4.25
2018-01-15T22:58:45.752Z,3.90
2018-01-15T23:01:13.257Z,5.35
2018-01-15T23:03:40.750Z,7.45
2018-01-15T23:06:09.033Z,4.55
2018-01-15T23:08:36.528Z,6.37
2018-01-15T23:11:04.060Z,4.70
2018-01-15T23:13:31.669Z,4.00
2018-01-15T23:15:59.205Z,5.10
2018-01-15T23:18:26.720Z,4.35
2018-01-15T23:20:54.996Z,5.15
2018-01-15T23:23:23.290Z,3.40
2018-01-15T23:25:50.804Z,5.80
2018-01-15T23:28:18.350Z,3.35
2018-01-15T23:30:45.848Z,4.43
2018-01-15T23:33:14.128Z,4.25
2018-01-15T23:35:42.396Z,4.87
2018-01-15T23:38:10.688Z,3.85
2018-01-15T23:40:38.952Z,4.37
2018-01-15T23:43:06.478Z,5.12
2018-01-15T23:45:33.990Z,5.12
2018-01-15T23:48:02.258Z,4.53
2018-01-15T23:50:30.560Z,3.87
2018-01-15T23:52:58.074Z,2.87
2018-01-15T23:55:25.587Z,4.57
2018-01-15T23:57:53.081Z,3.28
